Terminal Aerodrome Forecast
Issued by NWS Cleveland, OH

Home | Current Version | Previous Version | Graphics & Text | Print | Product List | Glossary On
Versions: 1 2 3 4 5 6 7 8 9 10 11 12 13 14 15 16 17 18 19 20 21 22 23 24 25
000
FTUS41 KCLE 281900 AAA
TAFERI
TAF AMD
KERI 281908Z 2819/2918 34014G20KT P6SM VCSH SCT020 BKN040
      TEMPO 2819/2821 BKN020
     FM290100 32009KT P6SM BKN040
     FM291400 27007KT P6SM VCSH BKN035=

USA.gov is the U.S. government's official web portal to all federal, state and local government web resources and services.